createdAt,value
2019-04-10T00:01:09.657Z,8.41
2019-04-10T00:03:43.656Z,8.38
2019-04-10T00:06:17.069Z,8.37
2019-04-10T00:08:47.026Z,8.35
2019-04-10T00:11:18.586Z,8.32
2019-04-10T00:13:49.846Z,8.29
2019-04-10T00:16:22.323Z,8.28
2019-04-10T00:18:53.999Z,8.24
2019-04-10T00:21:26.182Z,8.20
2019-04-10T00:23:57.686Z,8.17
2019-04-10T00:26:29.721Z,8.14
2019-04-10T00:29:01.017Z,8.10
2019-04-10T00:31:32.190Z,8.07
2019-04-10T00:34:03.439Z,8.07
2019-04-10T00:36:35.222Z,8.04
2019-04-10T00:39:08.635Z,8.00
2019-04-10T00:41:40.676Z,7.98
2019-04-10T00:44:11.827Z,7.97
2019-04-10T00:46:43.279Z,7.95
2019-04-10T00:49:15.361Z,7.91
2019-04-10T00:51:47.800Z,7.89
2019-04-10T00:54:20.005Z,7.87
2019-04-10T00:56:51.256Z,7.85
2019-04-10T00:59:22.446Z,7.83
2019-04-10T01:01:54.278Z,7.80
2019-04-10T01:04:26.636Z,7.79
2019-04-10T01:06:57.806Z,7.78
2019-04-10T01:09:29.182Z,7.76
2019-04-10T01:12:00.561Z,7.73
2019-04-10T01:14:31.863Z,7.70
2019-04-10T01:17:04.013Z,7.66
2019-04-10T01:19:36.281Z,7.65
2019-04-10T01:22:08.612Z,7.63
2019-04-10T01:24:41.744Z,7.63
2019-04-10T01:27:13.892Z,7.58
2019-04-10T01:29:46.041Z,7.55
2019-04-10T01:32:17.463Z,7.55
2019-04-10T01:34:49.633Z,7.53
2019-04-10T01:37:20.770Z,7.51
2019-04-10T01:39:52.801Z,7.50
2019-04-10T01:42:24.872Z,7.47
2019-04-10T01:44:56.045Z,7.46
2019-04-10T01:47:27.202Z,7.46
2019-04-10T01:49:58.498Z,7.45
2019-04-10T01:52:29.733Z,7.43
2019-04-10T01:55:03.168Z,7.40
2019-04-10T01:57:34.586Z,7.38
2019-04-10T02:00:06.800Z,7.36
2019-04-10T02:02:46.242Z,7.35
2019-04-10T02:05:18.604Z,7.33
2019-04-10T02:08:01.328Z,7.33
2019-04-10T02:10:23.776Z,7.29
2019-04-10T02:12:54.987Z,7.28
2019-04-10T02:15:26.234Z,7.26
2019-04-10T02:17:57.378Z,7.24
2019-04-10T02:20:29.156Z,7.21
2019-04-10T02:23:00.365Z,7.18
2019-04-10T02:25:32.624Z,7.16
2019-04-10T02:28:04.863Z,7.14
2019-04-10T02:30:37.291Z,7.10
2019-04-10T02:33:10.551Z,7.08
2019-04-10T02:35:43.452Z,7.04
2019-04-10T02:38:32.767Z,7.01
2019-04-10T02:40:47.732Z,6.98
2019-04-10T02:43:19.056Z,6.95
2019-04-10T02:45:51.149Z,6.93
2019-04-10T02:48:23.450Z,6.90
2019-04-10T02:50:55.515Z,6.88
2019-04-10T02:53:27.659Z,6.84
2019-04-10T02:56:00.442Z,6.79
2019-04-10T02:58:32.282Z,6.76
2019-04-10T03:01:03.675Z,6.71
2019-04-10T03:03:36.098Z,6.67
2019-04-10T03:06:09.127Z,6.63
2019-04-10T03:08:54.907Z,6.59
2019-04-10T03:11:14.523Z,6.58
2019-04-10T03:13:47.261Z,6.56
2019-04-10T03:16:19.441Z,6.55
2019-04-10T03:18:52.881Z,6.55
2019-04-10T03:21:25.038Z,6.53
2019-04-10T03:23:56.258Z,6.54
2019-04-10T03:26:27.913Z,6.53
2019-04-10T03:28:59.720Z,6.53
2019-04-10T03:31:32.469Z,6.54
2019-04-10T03:34:15.600Z,6.53
2019-04-10T03:36:45.528Z,6.53
2019-04-10T03:39:17.433Z,6.52
2019-04-10T03:41:48.648Z,6.52
2019-04-10T03:44:20.747Z,6.53
2019-04-10T03:46:52.802Z,6.53
2019-04-10T03:49:25.517Z,6.54
2019-04-10T03:51:56.792Z,6.55
2019-04-10T03:54:28.133Z,6.57
2019-04-10T03:57:00.394Z,6.58
2019-04-10T03:59:32.659Z,6.60
2019-04-10T04:02:03.910Z,6.61
2019-04-10T04:04:35.142Z,6.60
2019-04-10T04:07:07.076Z,6.58
2019-04-10T04:09:38.291Z,6.54
2019-04-10T04:12:10.477Z,6.52
2019-04-10T04:14:41.740Z,6.51
2019-04-10T04:17:13.610Z,6.49
2019-04-10T04:19:44.898Z,6.47
2019-04-10T04:22:16.710Z,6.44
2019-04-10T04:24:48.213Z,6.43
2019-04-10T04:27:20.031Z,6.43
2019-04-10T04:29:51.943Z,6.40
2019-04-10T04:32:23.812Z,6.40
2019-04-10T04:34:56.272Z,6.39
2019-04-10T04:37:28.046Z,6.39
2019-04-10T04:40:00.509Z,6.37
2019-04-10T04:42:32.920Z,6.39
2019-04-10T04:45:05.183Z,6.40
2019-04-10T04:47:36.332Z,6.40
2019-04-10T04:50:07.815Z,6.40
2019-04-10T04:52:39.166Z,6.42
2019-04-10T04:55:10.389Z,6.42
2019-04-10T04:57:42.292Z,6.46
2019-04-10T05:00:13.651Z,6.48
2019-04-10T05:02:44.843Z,6.48
2019-04-10T05:05:16.442Z,6.48
2019-04-10T05:07:58.411Z,6.48
2019-04-10T05:10:20.895Z,6.49
2019-04-10T05:12:52.113Z,6.48
2019-04-10T05:15:23.284Z,6.50
2019-04-10T05:17:55.557Z,6.53
2019-04-10T05:20:39.299Z,6.57
2019-04-10T05:22:59.990Z,6.59
2019-04-10T05:25:31.597Z,6.60
2019-04-10T05:28:03.632Z,6.61
2019-04-10T05:30:35.687Z,6.63
2019-04-10T05:33:06.964Z,6.62
2019-04-10T05:35:38.144Z,6.60
2019-04-10T05:38:10.207Z,6.59
2019-04-10T05:40:42.206Z,6.60
2019-04-10T05:43:13.534Z,6.60
2019-04-10T05:45:44.738Z,6.60
2019-04-10T05:48:15.984Z,6.61
2019-04-10T05:50:53.975Z,6.64
2019-04-10T05:53:20.429Z,6.65
2019-04-10T05:55:51.731Z,6.66
2019-04-10T05:58:23.765Z,6.67
2019-04-10T06:00:56.857Z,6.71
2019-04-10T06:03:28.277Z,6.74
2019-04-10T06:06:01.013Z,6.77
2019-04-10T06:08:33.322Z,6.80
2019-04-10T06:11:04.613Z,6.87
2019-04-10T06:13:36.853Z,7.00
2019-04-10T06:16:08.008Z,7.11
2019-04-10T06:18:39.593Z,7.22
2019-04-10T06:21:10.713Z,7.30
2019-04-10T06:23:42.042Z,7.38
2019-04-10T06:26:15.569Z,7.43
2019-04-10T06:28:46.497Z,7.51
2019-04-10T06:31:18.680Z,7.53
2019-04-10T06:33:50.586Z,7.56
2019-04-10T06:36:21.852Z,7.58
2019-04-10T06:38:53.147Z,7.60
2019-04-10T06:41:24.413Z,7.58
2019-04-10T06:43:55.705Z,7.59
2019-04-10T06:46:26.991Z,7.61
2019-04-10T06:48:58.475Z,7.62
2019-04-10T06:51:29.679Z,7.61
2019-04-10T06:54:06.999Z,7.57
2019-04-10T06:56:33.762Z,7.56
2019-04-10T06:59:05.072Z,7.59
2019-04-10T07:01:45.799Z,7.65
2019-04-10T07:04:09.952Z,7.71
2019-04-10T07:06:53.943Z,7.74
2019-04-10T07:09:21.438Z,7.83
2019-04-10T07:11:58.354Z,7.89
2019-04-10T07:14:28.721Z,7.95
2019-04-10T07:17:05.043Z,8.02
2019-04-10T07:19:33.103Z,8.08
2019-04-10T07:22:09.833Z,8.14
2019-04-10T07:24:41.185Z,8.17
2019-04-10T07:27:11.848Z,8.22
2019-04-10T07:29:43.094Z,8.26
2019-04-10T07:32:15.003Z,8.29
2019-04-10T07:34:46.729Z,8.34
2019-04-10T07:37:21.331Z,8.36
2019-04-10T07:39:50.971Z,8.41
2019-04-10T07:42:29.385Z,8.45
2019-04-10T07:44:56.486Z,8.51
2019-04-10T07:47:29.168Z,8.57
2019-04-10T07:50:02.118Z,8.60
2019-04-10T07:52:33.363Z,8.59
2019-04-10T07:55:06.449Z,8.64
2019-04-10T07:57:38.494Z,8.69
2019-04-10T08:00:11.739Z,8.72
2019-04-10T08:02:42.904Z,8.76
2019-04-10T08:05:14.449Z,8.79
2019-04-10T08:07:45.755Z,8.82
2019-04-10T08:10:17.904Z,8.88
2019-04-10T08:12:53.135Z,8.95
2019-04-10T08:15:23.452Z,8.98
2019-04-10T08:17:54.639Z,9.03
2019-04-10T08:20:26.175Z,9.08
2019-04-10T08:22:57.436Z,9.13
2019-04-10T08:25:29.663Z,9.16
2019-04-10T08:28:00.933Z,9.19
2019-04-10T08:30:34.183Z,9.23
2019-04-10T08:33:06.169Z,9.24
2019-04-10T08:35:37.870Z,9.26
2019-04-10T08:38:09.771Z,9.31
2019-04-10T08:40:42.235Z,9.37
2019-04-10T08:43:13.810Z,9.43
2019-04-10T08:45:50.041Z,9.48
2019-04-10T08:48:18.066Z,9.54
2019-04-10T08:50:50.383Z,9.60
2019-04-10T08:53:22.206Z,9.65
2019-04-10T08:55:54.549Z,9.71
2019-04-10T08:58:27.082Z,9.76
2019-04-10T09:01:00.676Z,9.82
2019-04-10T09:03:32.987Z,9.90
2019-04-10T09:06:05.200Z,9.96
2019-04-10T09:08:37.184Z,10.01
2019-04-10T09:11:09.111Z,10.02
2019-04-10T09:13:40.945Z,10.05
2019-04-10T09:16:12.338Z,10.09
2019-04-10T09:18:43.717Z,10.16
2019-04-10T09:21:15.340Z,10.23
2019-04-10T09:23:52.784Z,10.30
2019-04-10T09:26:20.432Z,10.39
2019-04-10T09:28:52.861Z,10.44
2019-04-10T09:31:24.179Z,10.49
2019-04-10T09:33:55.824Z,10.54
2019-04-10T09:36:27.160Z,10.60
2019-04-10T09:38:59.083Z,10.67
2019-04-10T09:41:32.012Z,10.71
2019-04-10T09:44:04.466Z,10.77
2019-04-10T09:46:35.841Z,10.83
2019-04-10T09:49:07.187Z,10.88
2019-04-10T09:51:38.457Z,10.94
2019-04-10T09:54:09.945Z,10.99
2019-04-10T09:56:41.963Z,11.06
2019-04-10T09:59:13.876Z,11.11
2019-04-10T10:01:46.412Z,11.21
2019-04-10T10:04:17.699Z,11.33
2019-04-10T10:06:49.365Z,11.44
2019-04-10T10:09:21.540Z,11.59
2019-04-10T10:11:53.458Z,11.69
2019-04-10T10:14:26.549Z,11.73
2019-04-10T10:16:58.086Z,11.74
2019-04-10T10:19:30.095Z,11.75
2019-04-10T10:22:03.579Z,11.72
2019-04-10T10:24:34.993Z,11.72
2019-04-10T10:27:07.310Z,11.74
2019-04-10T10:29:38.864Z,11.83
2019-04-10T10:32:10.953Z,11.97
2019-04-10T10:34:42.774Z,12.05
2019-04-10T10:37:15.202Z,12.07
2019-04-10T10:39:47.277Z,12.09
2019-04-10T10:42:19.303Z,12.16
2019-04-10T10:44:50.747Z,12.21
2019-04-10T10:47:22.272Z,12.27
2019-04-10T10:49:53.600Z,12.28
2019-04-10T10:52:25.737Z,12.32
2019-04-10T10:54:59.062Z,12.36
2019-04-10T10:57:31.139Z,12.41
2019-04-10T11:00:02.450Z,12.42
2019-04-10T11:02:33.844Z,12.43
2019-04-10T11:05:07.087Z,12.38
2019-04-10T11:07:38.872Z,12.39
2019-04-10T11:10:12.479Z,12.46
2019-04-10T11:12:44.176Z,12.54
2019-04-10T11:15:16.199Z,12.64
2019-04-10T11:17:47.502Z,12.76
2019-04-10T11:20:19.897Z,12.85
2019-04-10T11:22:51.349Z,12.96
2019-04-10T11:25:22.492Z,12.98
2019-04-10T11:27:54.051Z,13.04
2019-04-10T11:30:26.839Z,13.13
2019-04-10T11:32:58.311Z,13.23
2019-04-10T11:35:31.732Z,13.32
2019-04-10T11:38:05.660Z,13.38
2019-04-10T11:40:36.523Z,13.43
2019-04-10T11:43:08.002Z,13.43
2019-04-10T11:48:12.936Z,13.46
2019-04-10T11:50:46.170Z,13.48
2019-04-10T11:53:19.067Z,13.54
2019-04-10T11:55:53.627Z,13.54
2019-04-10T11:58:27.112Z,13.50
2019-04-10T12:00:59.473Z,13.54
2019-04-10T12:03:31.356Z,13.61
2019-04-10T12:06:04.433Z,13.70
2019-04-10T12:09:04.251Z,13.79
2019-04-10T12:11:14.563Z,13.83
2019-04-10T12:13:42.737Z,13.88
2019-04-10T12:16:14.805Z,13.95
2019-04-10T12:18:46.781Z,14.04
2019-04-10T12:21:18.114Z,14.10
2019-04-10T12:23:50.228Z,14.16
2019-04-10T12:26:21.717Z,14.17
2019-04-10T12:28:53.808Z,14.09
2019-04-10T12:31:26.009Z,14.09
2019-04-10T12:33:57.350Z,14.32
2019-04-10T12:36:28.871Z,14.68
2019-04-10T12:39:00.353Z,15.17
2019-04-10T12:41:33.268Z,15.85
2019-04-10T12:44:05.331Z,16.35
2019-04-10T12:46:37.341Z,16.59
2019-04-10T12:49:09.640Z,16.64
2019-04-10T12:51:41.557Z,16.52
2019-04-10T12:54:12.842Z,16.35
2019-04-10T12:56:43.993Z,16.12
2019-04-10T12:59:15.312Z,15.91
2019-04-10T13:01:47.042Z,15.73
2019-04-10T13:04:18.228Z,15.60
2019-04-10T13:06:52.348Z,15.51
2019-04-10T13:09:22.255Z,15.96
2019-04-10T13:11:53.408Z,16.53
2019-04-10T13:14:24.620Z,17.69
2019-04-10T13:16:56.422Z,19.62
2019-04-10T13:19:27.595Z,21.79
2019-04-10T13:21:59.896Z,24.23
2019-04-10T13:24:31.194Z,26.66
2019-04-10T13:27:02.380Z,28.87
2019-04-10T13:29:33.643Z,30.79
2019-04-10T13:32:04.936Z,31.75
2019-04-10T13:34:37.389Z,31.57
2019-04-10T13:37:08.548Z,30.86
2019-04-10T13:39:39.798Z,29.59
2019-04-10T13:42:10.966Z,28.22
2019-04-10T13:44:42.543Z,26.82
2019-04-10T13:47:13.793Z,25.52
2019-04-10T13:49:46.247Z,24.38
2019-04-10T13:52:18.285Z,23.43
2019-04-10T13:54:50.450Z,22.67
2019-04-10T13:57:22.257Z,23.02
2019-04-10T13:59:53.523Z,23.99
2019-04-10T14:02:32.519Z,25.64
2019-04-10T14:05:05.264Z,27.74
2019-04-10T14:07:37.600Z,29.43
2019-04-10T14:10:10.376Z,30.21
2019-04-10T14:12:43.012Z,30.36
2019-04-10T14:15:14.383Z,30.34
2019-04-10T14:17:45.961Z,30.38
2019-04-10T14:20:17.992Z,30.11
2019-04-10T14:22:55.711Z,29.08
2019-04-10T14:25:34.100Z,27.94
2019-04-10T14:28:05.261Z,26.89
2019-04-10T14:30:37.980Z,25.93
2019-04-10T14:33:09.233Z,25.01
2019-04-10T14:35:41.123Z,24.57
2019-04-10T14:38:12.837Z,24.12
2019-04-10T14:40:45.167Z,23.34
2019-04-10T14:43:16.758Z,22.57
2019-04-10T14:45:48.135Z,22.13
2019-04-10T14:48:20.266Z,22.05
2019-04-10T14:50:51.544Z,22.21
2019-04-10T14:53:22.814Z,22.55
2019-04-10T14:55:54.002Z,22.94
2019-04-10T14:58:28.946Z,23.38
2019-04-10T15:00:58.232Z,23.81
2019-04-10T15:03:29.369Z,24.19
2019-04-10T15:06:02.458Z,24.52
2019-04-10T15:08:33.771Z,24.76
2019-04-10T15:11:04.950Z,24.64
2019-04-10T15:13:36.231Z,24.13
2019-04-10T15:16:07.440Z,23.54
2019-04-10T15:18:39.188Z,22.86
2019-04-10T15:21:10.356Z,22.09
2019-04-10T15:23:42.595Z,21.35
2019-04-10T15:26:13.907Z,20.75
2019-04-10T15:28:45.990Z,20.31
2019-04-10T15:31:17.518Z,19.95
2019-04-10T15:33:49.644Z,19.60
2019-04-10T15:36:22.148Z,19.38
2019-04-10T15:38:54.621Z,19.15
2019-04-10T15:41:26.045Z,18.90
2019-04-10T15:43:59.414Z,18.60
2019-04-10T15:46:31.009Z,18.26
2019-04-10T15:49:03.685Z,17.97
2019-04-10T15:51:36.213Z,17.70
2019-04-10T15:54:07.890Z,17.49
2019-04-10T15:56:40.189Z,17.30
2019-04-10T15:59:12.182Z,17.11
2019-04-10T16:01:43.644Z,16.97
2019-04-10T16:04:17.125Z,16.87
2019-04-10T16:06:49.421Z,16.80
2019-04-10T16:09:21.278Z,16.80
2019-04-10T16:12:04.218Z,17.91
2019-04-10T16:14:35.895Z,19.53
2019-04-10T16:17:26.139Z,21.20
2019-04-10T16:20:15.511Z,21.55
2019-04-10T16:23:03.786Z,20.94
2019-04-10T16:25:36.227Z,20.08
2019-04-10T16:28:08.739Z,19.48
2019-04-10T16:30:41.049Z,18.97
2019-04-10T16:33:12.567Z,18.94
2019-04-10T16:35:44.170Z,19.66
2019-04-10T16:38:16.365Z,20.16
2019-04-10T16:40:47.963Z,20.01
2019-04-10T16:43:20.207Z,19.60
2019-04-10T16:45:53.006Z,19.11
2019-04-10T16:48:25.165Z,18.61
2019-04-10T16:50:58.095Z,18.15
2019-04-10T16:53:29.934Z,17.97
2019-04-10T16:56:01.255Z,17.95
2019-04-10T16:58:32.453Z,18.03
2019-04-10T17:01:04.362Z,18.17
2019-04-10T17:03:35.956Z,18.33
2019-04-10T17:06:08.229Z,18.32
2019-04-10T17:08:40.457Z,18.16
2019-04-10T17:11:12.627Z,17.93
2019-04-10T17:13:43.871Z,17.64
2019-04-10T17:16:15.661Z,17.30
2019-04-10T17:18:47.570Z,16.90
2019-04-10T17:21:19.896Z,16.47
2019-04-10T17:23:51.192Z,16.12
2019-04-10T17:26:22.629Z,15.78
2019-04-10T17:28:53.720Z,15.50
2019-04-10T17:31:24.861Z,15.21
2019-04-10T17:33:56.826Z,14.96
2019-04-10T17:36:30.054Z,14.74
2019-04-10T17:39:01.277Z,14.53
2019-04-10T17:41:35.401Z,14.32
2019-04-10T17:44:07.754Z,14.15
2019-04-10T17:46:39.520Z,14.02
2019-04-10T17:49:11.940Z,13.89
2019-04-10T17:51:44.361Z,13.78
2019-04-10T17:54:15.699Z,13.63
2019-04-10T17:56:46.935Z,13.47
2019-04-10T17:59:18.407Z,13.32
2019-04-10T18:01:49.725Z,13.12
2019-04-10T18:04:22.065Z,12.97
2019-04-10T18:06:53.385Z,12.83
2019-04-10T18:09:24.858Z,12.74
2019-04-10T18:11:57.164Z,12.66
2019-04-10T18:14:29.129Z,12.58
2019-04-10T18:17:02.430Z,12.48
2019-04-10T18:19:34.375Z,12.41
2019-04-10T18:22:06.694Z,12.34
2019-04-10T18:24:40.072Z,12.23
2019-04-10T18:27:12.271Z,12.17
2019-04-10T18:29:43.682Z,12.09
2019-04-10T18:32:16.009Z,12.05
2019-04-10T18:34:47.354Z,11.99
2019-04-10T18:37:22.041Z,11.94
2019-04-10T18:39:51.578Z,11.86
2019-04-10T18:42:24.239Z,11.79
2019-04-10T18:44:55.606Z,11.74
2019-04-10T18:47:27.117Z,11.70
2019-04-10T18:49:58.325Z,11.68
2019-04-10T18:52:29.635Z,11.65
2019-04-10T18:55:00.804Z,11.62
2019-04-10T18:57:33.815Z,11.60
2019-04-10T19:00:24.058Z,11.58
2019-04-10T19:03:05.476Z,11.55
2019-04-10T19:05:38.851Z,11.51
2019-04-10T19:08:12.792Z,11.48
2019-04-10T19:10:43.381Z,11.44
2019-04-10T19:13:18.914Z,11.39
2019-04-10T19:15:51.654Z,11.35
2019-04-10T19:18:25.832Z,11.30
2019-04-10T19:20:59.035Z,11.29
2019-04-10T19:23:30.861Z,11.27
2019-04-10T19:26:05.511Z,11.19
2019-04-10T19:28:40.725Z,11.13
2019-04-10T19:31:18.103Z,11.07
2019-04-10T19:33:47.453Z,10.99
2019-04-10T19:36:19.471Z,10.93
2019-04-10T19:38:51.764Z,10.88
2019-04-10T19:41:29.604Z,10.86
2019-04-10T19:43:56.872Z,10.84
2019-04-10T19:46:29.322Z,10.81
2019-04-10T19:49:00.697Z,10.76
2019-04-10T19:51:32.262Z,10.71
2019-04-10T19:54:05.696Z,10.66
2019-04-10T19:56:37.004Z,10.65
2019-04-10T19:59:08.468Z,10.61
2019-04-10T20:01:39.603Z,10.57
2019-04-10T20:04:10.951Z,10.54
2019-04-10T20:06:42.711Z,10.52
2019-04-10T20:09:15.063Z,10.51
2019-04-10T20:11:52.415Z,10.51
2019-04-10T20:14:20.036Z,10.49
2019-04-10T20:16:51.339Z,10.49
2019-04-10T20:19:22.610Z,10.45
2019-04-10T20:21:54.531Z,10.44
2019-04-10T20:24:27.140Z,10.44
2019-04-10T20:26:59.410Z,10.40
2019-04-10T20:29:30.933Z,10.36
2019-04-10T20:32:02.155Z,10.35
2019-04-10T20:34:33.705Z,10.33
2019-04-10T20:37:08.426Z,10.31
2019-04-10T20:39:39.126Z,10.28
2019-04-10T20:42:10.538Z,10.26
2019-04-10T20:44:42.962Z,10.24
2019-04-10T20:47:15.684Z,10.18
2019-04-10T20:49:47.913Z,10.15
2019-04-10T20:52:20.017Z,10.12
2019-04-10T20:54:51.254Z,10.13
2019-04-10T20:57:23.571Z,10.07
2019-04-10T20:59:55.308Z,10.02
2019-04-10T21:02:26.586Z,9.95
2019-04-10T21:05:04.968Z,9.91
2019-04-10T21:07:31.814Z,9.91
2019-04-10T21:10:04.354Z,9.89
2019-04-10T21:12:36.407Z,9.88
2019-04-10T21:15:09.115Z,9.89
2019-04-10T21:17:40.381Z,9.86
2019-04-10T21:20:13.513Z,9.84
2019-04-10T21:22:45.137Z,9.80
2019-04-10T21:25:17.048Z,9.79
2019-04-10T21:27:50.399Z,9.75
2019-04-10T21:30:44.418Z,9.72
2019-04-10T21:33:40.593Z,9.68
2019-04-10T21:36:11.975Z,9.65
2019-04-10T21:38:43.304Z,9.58
2019-04-10T21:41:15.628Z,9.55
2019-04-10T21:43:47.511Z,9.52
2019-04-10T21:46:19.727Z,9.51
2019-04-10T21:48:51.188Z,9.51
2019-04-10T21:51:23.231Z,9.48
2019-04-10T21:53:54.547Z,9.48
2019-04-10T21:56:26.636Z,9.46
2019-04-10T21:58:59.035Z,9.43
2019-04-10T22:01:30.486Z,9.36
2019-04-10T22:04:03.895Z,9.32
2019-04-10T22:06:45.520Z,9.30
2019-04-10T22:09:34.916Z,9.25
2019-04-10T22:12:26.908Z,9.21
2019-04-10T22:14:52.594Z,9.20
2019-04-10T22:17:24.724Z,9.21
2019-04-10T22:19:55.977Z,9.22
2019-04-10T22:22:27.253Z,9.22
2019-04-10T22:24:59.157Z,9.21
2019-04-10T22:27:31.632Z,9.15
2019-04-10T22:30:03.051Z,9.12
2019-04-10T22:32:35.830Z,9.09
2019-04-10T22:35:07.433Z,9.05
2019-04-10T22:37:39.906Z,9.04
2019-04-10T22:40:11.248Z,9.02
2019-04-10T22:42:46.226Z,9.02
2019-04-10T22:45:33.622Z,9.01
2019-04-10T22:48:06.170Z,9.01
2019-04-10T22:50:38.556Z,8.98
2019-04-10T22:53:09.790Z,8.95
2019-04-10T22:55:42.310Z,8.95
2019-04-10T22:58:13.486Z,8.94
2019-04-10T23:00:45.971Z,8.95
2019-04-10T23:03:18.106Z,8.94
2019-04-10T23:05:49.353Z,8.96
2019-04-10T23:08:20.504Z,8.95
2019-04-10T23:10:51.838Z,8.92
2019-04-10T23:13:23.925Z,8.85
2019-04-10T23:15:55.667Z,8.80
2019-04-10T23:18:27.589Z,8.75
2019-04-10T23:20:58.869Z,8.73
2019-04-10T23:23:30.769Z,8.66
2019-04-10T23:26:02.025Z,8.62
2019-04-10T23:28:34.295Z,8.61
2019-04-10T23:31:05.700Z,8.60
2019-04-10T23:33:37.016Z,8.63
2019-04-10T23:36:08.240Z,8.66
2019-04-10T23:38:39.657Z,8.66
2019-04-10T23:41:11.580Z,8.65
2019-04-10T23:43:44.040Z,8.62
2019-04-10T23:46:15.197Z,8.58
2019-04-10T23:48:46.776Z,8.56
2019-04-10T23:51:18.977Z,8.53
2019-04-10T23:53:50.964Z,8.48
2019-04-10T23:56:22.171Z,8.44
2019-04-10T23:58:54.133Z,8.41
